createdAt,value
2022-11-19T00:00:23.206Z,968.13
2022-11-19T00:00:54.625Z,968.03
2022-11-19T00:01:10.829Z,968.03
2022-11-19T00:01:54.743Z,968.03
2022-11-19T00:02:26.761Z,968.03
2022-11-19T00:02:58.846Z,968.13
2022-11-19T00:03:30.599Z,968.13
2022-11-19T00:04:03.118Z,968.13
2022-11-19T00:04:34.458Z,968.13
2022-11-19T00:05:06.813Z,968.13
2022-11-19T00:05:38.660Z,968.03
2022-11-19T00:06:10.448Z,968.03
2022-11-19T00:06:42.367Z,968.23
2022-11-19T00:07:14.403Z,968.23
2022-11-19T00:07:46.121Z,968.03
2022-11-19T00:08:18.288Z,968.03
2022-11-19T00:08:50.353Z,968.23
2022-11-19T00:09:22.373Z,968.23
2022-11-19T00:09:54.236Z,968.13
2022-11-19T00:10:10.667Z,968.13
2022-11-19T00:10:42.224Z,968.13
2022-11-19T00:10:58.645Z,968.13
2022-11-19T00:11:30.250Z,968.13
2022-11-19T00:12:02.387Z,968.23
2022-11-19T00:12:18.276Z,968.23
2022-11-19T00:12:49.922Z,968.13
2022-11-19T00:13:33.998Z,968.13
2022-11-19T00:14:06.161Z,968.13
2022-11-19T00:14:38.083Z,968.13
2022-11-19T00:15:11.728Z,968.13
2022-11-19T00:15:41.995Z,968.13
2022-11-19T00:16:13.936Z,968.13
2022-11-19T00:16:45.855Z,968.03
2022-11-19T00:17:17.956Z,968.03
2022-11-19T00:17:49.970Z,968.13
2022-11-19T00:18:21.969Z,968.13
2022-11-19T00:18:53.869Z,968.13
2022-11-19T00:19:10.146Z,968.13
2022-11-19T00:19:53.823Z,968.34
2022-11-19T00:20:25.957Z,968.34
2022-11-19T00:20:57.831Z,968.13
2022-11-19T00:21:29.853Z,968.13
2022-11-19T00:22:01.981Z,968.34
2022-11-19T00:22:33.604Z,968.34
2022-11-19T00:23:05.814Z,968.34
2022-11-19T00:23:37.544Z,968.13
2022-11-19T00:24:09.898Z,968.13
2022-11-19T00:24:41.696Z,968.34
2022-11-19T00:25:13.818Z,968.34
2022-11-19T00:25:45.460Z,968.23
2022-11-19T00:26:17.571Z,968.23
2022-11-19T00:26:49.668Z,968.13
2022-11-19T00:27:21.689Z,968.13
2022-11-19T00:27:53.396Z,968.23
2022-11-19T00:28:25.472Z,968.23
2022-11-19T00:28:57.362Z,968.13
2022-11-19T00:29:29.818Z,968.13
2022-11-19T00:30:05.496Z,968.23
2022-11-19T00:30:47.641Z,968.23
2022-11-19T00:31:05.448Z,968.23
2022-11-19T00:31:37.283Z,968.03
2022-11-19T00:32:09.513Z,968.03
2022-11-19T00:32:25.427Z,968.03
2022-11-19T00:32:57.357Z,968.23
2022-11-19T00:33:41.223Z,967.93
2022-11-19T00:34:13.152Z,967.93
2022-11-19T00:34:45.025Z,968.03
2022-11-19T00:35:17.302Z,968.03
2022-11-19T00:35:49.206Z,968.34
2022-11-19T00:36:21.229Z,968.34
2022-11-19T00:36:52.971Z,968.13
2022-11-19T00:37:25.075Z,968.13
2022-11-19T00:37:57.077Z,968.03
2022-11-19T00:38:28.992Z,968.03
2022-11-19T00:39:01.148Z,968.13
2022-11-19T00:39:32.891Z,968.23
2022-11-19T00:40:05.257Z,968.23
2022-11-19T00:40:37.078Z,968.23
2022-11-19T00:41:09.156Z,968.23
2022-11-19T00:41:24.967Z,968.23
2022-11-19T00:42:09.164Z,968.13
2022-11-19T00:42:41.166Z,968.23
2022-11-19T00:43:12.939Z,968.23
2022-11-19T00:43:44.852Z,968.03
2022-11-19T00:44:16.846Z,968.03
2022-11-19T00:44:49.026Z,968.23
2022-11-19T00:45:21.276Z,968.23
2022-11-19T00:45:52.768Z,968.03
2022-11-19T00:46:09.307Z,968.03
2022-11-19T00:46:41.036Z,968.03
2022-11-19T00:47:24.938Z,968.03
2022-11-19T00:47:56.715Z,968.03
2022-11-19T00:48:28.665Z,968.03
2022-11-19T00:49:00.646Z,968.13
2022-11-19T00:49:32.687Z,968.13
2022-11-19T00:50:04.894Z,968.13
2022-11-19T00:50:36.510Z,968.03
2022-11-19T00:51:08.601Z,968.03
2022-11-19T00:51:40.646Z,968.03
2022-11-19T00:52:12.485Z,968.03
2022-11-19T00:52:44.395Z,968.03
2022-11-19T00:53:16.359Z,968.03
2022-11-19T00:53:48.363Z,968.13
2022-11-19T00:54:20.653Z,968.13
2022-11-19T00:54:52.250Z,968.03
2022-11-19T00:55:08.842Z,968.03
2022-11-19T00:55:52.295Z,968.13
2022-11-19T00:56:24.416Z,968.13
2022-11-19T00:56:56.350Z,967.93
2022-11-19T00:57:28.370Z,967.93
2022-11-19T00:58:00.329Z,968.13
2022-11-19T00:58:32.232Z,968.13
2022-11-19T00:59:04.830Z,968.23
2022-11-19T00:59:36.198Z,968.03
2022-11-19T01:00:09.892Z,968.03
2022-11-19T01:00:40.426Z,968.13
2022-11-19T01:01:12.363Z,968.13
2022-11-19T01:01:43.951Z,968.13
2022-11-19T01:02:15.991Z,968.13
2022-11-19T01:02:48.030Z,968.13
2022-11-19T01:03:20.123Z,968.13
2022-11-19T01:03:51.995Z,968.13
2022-11-19T01:04:24.078Z,968.13
2022-11-19T01:04:55.900Z,968.13
2022-11-19T01:05:28.225Z,968.13
2022-11-19T01:05:59.887Z,968.03
2022-11-19T01:06:31.810Z,968.03
2022-11-19T01:07:04.354Z,967.93
2022-11-19T01:07:36.016Z,968.13
2022-11-19T01:08:07.704Z,968.13
2022-11-19T01:08:23.811Z,968.13
2022-11-19T01:08:55.849Z,967.93
2022-11-19T01:09:40.072Z,967.93
2022-11-19T01:10:11.984Z,967.93
2022-11-19T01:10:43.503Z,968.03
2022-11-19T01:11:15.604Z,968.03
2022-11-19T01:11:47.536Z,967.93
2022-11-19T01:12:19.896Z,967.93
2022-11-19T01:12:51.501Z,968.13
2022-11-19T01:13:07.726Z,968.13
2022-11-19T01:13:51.552Z,968.23
2022-11-19T01:14:23.510Z,968.23
2022-11-19T01:14:55.616Z,968.13
2022-11-19T01:15:27.885Z,968.13
2022-11-19T01:15:59.581Z,968.03
2022-11-19T01:16:31.497Z,968.03
2022-11-19T01:17:03.901Z,968.13
2022-11-19T01:17:35.184Z,968.03
2022-11-19T01:18:07.383Z,968.03
2022-11-19T01:18:39.768Z,968.23
2022-11-19T01:19:11.271Z,968.23
2022-11-19T01:19:43.171Z,968.13
2022-11-19T01:20:15.454Z,968.13
2022-11-19T01:20:47.335Z,968.13
2022-11-19T01:21:19.344Z,968.13
2022-11-19T01:21:51.159Z,968.23
2022-11-19T01:22:07.299Z,968.23
2022-11-19T01:22:39.624Z,968.13
2022-11-19T01:23:23.037Z,968.13
2022-11-19T01:23:55.343Z,968.13
2022-11-19T01:24:27.014Z,968.13
2022-11-19T01:24:59.164Z,968.13
2022-11-19T01:25:31.458Z,968.13
2022-11-19T01:26:03.573Z,968.34
2022-11-19T01:26:34.944Z,968.13
2022-11-19T01:27:07.069Z,968.13
2022-11-19T01:27:22.979Z,968.13
2022-11-19T01:27:55.004Z,968.13
2022-11-19T01:28:39.387Z,968.13
2022-11-19T01:29:10.828Z,968.13
2022-11-19T01:29:42.737Z,968.13
2022-11-19T01:30:15.928Z,968.13
2022-11-19T01:30:46.867Z,968.13
2022-11-19T01:31:18.866Z,968.13
2022-11-19T01:31:50.740Z,968.23
2022-11-19T01:32:06.853Z,968.23
2022-11-19T01:32:50.819Z,968.03
2022-11-19T01:33:22.835Z,968.03
2022-11-19T01:33:54.810Z,968.03
2022-11-19T01:34:26.583Z,968.03
2022-11-19T01:34:58.841Z,968.13
2022-11-19T01:35:31.059Z,968.13
2022-11-19T01:36:02.864Z,968.03
2022-11-19T01:36:34.480Z,968.03
2022-11-19T01:37:06.719Z,968.03
2022-11-19T01:37:38.935Z,968.03
2022-11-19T01:38:10.946Z,968.03
2022-11-19T01:38:42.590Z,968.13
2022-11-19T01:39:14.482Z,968.13
2022-11-19T01:39:46.522Z,968.23
2022-11-19T01:40:18.877Z,968.23
2022-11-19T01:40:50.495Z,968.13
2022-11-19T01:41:06.674Z,968.13
2022-11-19T01:41:38.356Z,968.03
2022-11-19T01:41:54.536Z,968.03
2022-11-19T01:42:26.163Z,968.03
2022-11-19T01:42:58.374Z,967.93
2022-11-19T01:43:30.532Z,967.93
2022-11-19T01:44:02.458Z,968.13
2022-11-19T01:44:34.154Z,968.03
2022-11-19T01:45:07.115Z,968.03
2022-11-19T01:45:38.246Z,968.13
2022-11-19T01:46:10.480Z,968.13
2022-11-19T01:46:42.109Z,968.03
2022-11-19T01:47:14.082Z,968.03
2022-11-19T01:47:46.128Z,967.93
2022-11-19T01:48:18.197Z,967.93
2022-11-19T01:48:50.077Z,967.93
2022-11-19T01:49:22.483Z,967.93
2022-11-19T01:49:38.341Z,968.03
2022-11-19T01:50:10.772Z,968.03
2022-11-19T01:50:53.997Z,968.03
2022-11-19T01:51:26.415Z,968.03
2022-11-19T01:51:57.816Z,967.93
2022-11-19T01:52:30.103Z,967.93
2022-11-19T01:53:02.232Z,968.03
2022-11-19T01:53:33.787Z,968.03
2022-11-19T01:54:05.836Z,968.03
2022-11-19T01:54:37.907Z,968.13
2022-11-19T01:55:10.464Z,968.13
2022-11-19T01:55:41.637Z,968.03
2022-11-19T01:56:13.712Z,968.03
2022-11-19T01:56:45.755Z,968.03
2022-11-19T01:57:17.666Z,968.03
2022-11-19T01:57:49.734Z,967.93
2022-11-19T01:58:05.772Z,967.93
2022-11-19T01:58:37.707Z,967.83
2022-11-19T01:58:53.543Z,967.83
2022-11-19T01:59:25.757Z,967.83
2022-11-19T01:59:57.500Z,968.13
2022-11-19T02:00:29.913Z,968.13
2022-11-19T02:01:01.790Z,967.93
2022-11-19T02:01:33.773Z,968.03
2022-11-19T02:02:05.506Z,968.03
2022-11-19T02:02:37.514Z,968.03
2022-11-19T02:03:09.752Z,968.03
2022-11-19T02:03:41.470Z,968.03
2022-11-19T02:04:13.281Z,968.03
2022-11-19T02:04:45.234Z,968.13
2022-11-19T02:05:17.686Z,968.13
2022-11-19T02:05:49.701Z,968.13
2022-11-19T02:06:21.410Z,968.13
2022-11-19T02:06:37.386Z,968.03
2022-11-19T02:07:09.486Z,968.03
2022-11-19T02:07:53.289Z,968.13
2022-11-19T02:08:25.288Z,968.13
2022-11-19T02:08:57.109Z,967.93
2022-11-19T02:09:29.405Z,967.93
2022-11-19T02:10:01.861Z,968.13
2022-11-19T02:10:33.010Z,968.13
2022-11-19T02:11:05.260Z,968.13
2022-11-19T02:11:21.396Z,968.13
2022-11-19T02:12:05.354Z,968.23
2022-11-19T02:12:37.211Z,968.13
2022-11-19T02:13:09.227Z,968.13
2022-11-19T02:13:41.033Z,968.23
2022-11-19T02:14:12.966Z,968.23
2022-11-19T02:14:44.941Z,968.13
2022-11-19T02:15:17.559Z,968.13
2022-11-19T02:15:48.956Z,968.34
2022-11-19T02:16:20.946Z,968.34
2022-11-19T02:16:53.070Z,968.23
2022-11-19T02:17:24.774Z,968.23
2022-11-19T02:17:56.764Z,968.23
2022-11-19T02:18:29.038Z,968.23
2022-11-19T02:19:00.988Z,968.03
2022-11-19T02:19:32.631Z,968.13
2022-11-19T02:20:05.292Z,968.13
2022-11-19T02:20:36.865Z,968.23
2022-11-19T02:21:08.870Z,968.23
2022-11-19T02:21:40.765Z,968.13
2022-11-19T02:22:12.631Z,968.13
2022-11-19T02:22:44.521Z,967.93
2022-11-19T02:23:16.727Z,967.93
2022-11-19T02:23:48.492Z,968.23
2022-11-19T02:24:05.036Z,968.23
2022-11-19T02:24:48.686Z,968.13
2022-11-19T02:25:20.936Z,968.13
2022-11-19T02:25:52.679Z,968.13
2022-11-19T02:26:24.579Z,968.13
2022-11-19T02:26:56.418Z,968.13
2022-11-19T02:27:28.762Z,968.13
2022-11-19T02:28:00.824Z,967.93
2022-11-19T02:28:32.406Z,967.93
2022-11-19T02:29:04.723Z,968.03
2022-11-19T02:29:36.489Z,968.03
2022-11-19T02:30:10.151Z,968.03
2022-11-19T02:30:40.589Z,968.03
2022-11-19T02:31:12.262Z,968.03
2022-11-19T02:31:44.322Z,968.13
2022-11-19T02:32:16.374Z,968.13
2022-11-19T02:32:48.152Z,967.93
2022-11-19T02:33:20.337Z,967.93
2022-11-19T02:33:52.254Z,968.34
2022-11-19T02:34:24.376Z,968.34
2022-11-19T02:34:56.138Z,968.13
2022-11-19T02:35:28.438Z,968.13
2022-11-19T02:36:00.053Z,968.23
2022-11-19T02:36:32.217Z,968.23
2022-11-19T02:37:04.302Z,968.03
2022-11-19T02:37:20.287Z,968.03
2022-11-19T02:37:52.207Z,968.34
2022-11-19T02:38:36.062Z,968.13
2022-11-19T02:39:08.122Z,968.13
2022-11-19T02:39:40.221Z,968.23
2022-11-19T02:40:12.148Z,968.23
2022-11-19T02:40:43.929Z,968.34
2022-11-19T02:41:15.960Z,968.34
2022-11-19T02:41:47.753Z,968.13
2022-11-19T02:42:04.361Z,968.13
2022-11-19T02:42:47.710Z,968.23
2022-11-19T02:43:20.006Z,968.23
2022-11-19T02:43:51.958Z,968.03
2022-11-19T02:44:23.746Z,968.03
2022-11-19T02:44:55.701Z,968.23
2022-11-19T02:45:28.011Z,968.23
2022-11-19T02:45:59.889Z,968.03
2022-11-19T02:46:31.659Z,968.03
2022-11-19T02:47:03.820Z,968.13
2022-11-19T02:47:35.632Z,968.44
2022-11-19T02:48:07.671Z,968.44
2022-11-19T02:48:39.652Z,968.03
2022-11-19T02:49:11.576Z,968.03
2022-11-19T02:49:43.506Z,968.13
2022-11-19T02:50:15.766Z,968.13
2022-11-19T02:50:47.412Z,968.03
2022-11-19T02:51:03.761Z,968.03
2022-11-19T02:51:35.590Z,968.34
2022-11-19T02:52:19.568Z,968.34
2022-11-19T02:52:51.380Z,968.13
2022-11-19T02:53:23.400Z,968.13
2022-11-19T02:53:55.464Z,968.13
2022-11-19T02:54:27.289Z,968.13
2022-11-19T02:54:59.923Z,968.23
2022-11-19T02:55:31.565Z,968.23
2022-11-19T02:56:03.517Z,968.13
2022-11-19T02:56:35.281Z,968.13
2022-11-19T02:57:07.412Z,968.13
2022-11-19T02:57:39.280Z,968.23
2022-11-19T02:58:11.254Z,968.23
2022-11-19T02:58:43.135Z,968.13
2022-11-19T02:59:15.210Z,968.13
2022-11-19T02:59:47.104Z,968.13
2022-11-19T03:00:20.412Z,968.13
2022-11-19T03:00:51.029Z,968.23
2022-11-19T03:01:23.316Z,968.23
2022-11-19T03:01:55.013Z,968.03
2022-11-19T03:02:26.910Z,968.03
2022-11-19T03:02:59.365Z,968.34
2022-11-19T03:03:31.028Z,968.34
2022-11-19T03:04:03.122Z,968.44
2022-11-19T03:04:19.304Z,968.44
2022-11-19T03:05:03.518Z,968.44
2022-11-19T03:05:34.868Z,968.23
2022-11-19T03:06:06.992Z,968.23
2022-11-19T03:06:38.863Z,968.44
2022-11-19T03:07:10.944Z,968.44
2022-11-19T03:07:42.696Z,968.23
2022-11-19T03:08:14.713Z,968.23
2022-11-19T03:08:46.647Z,968.44
2022-11-19T03:09:19.111Z,968.44
2022-11-19T03:09:50.819Z,968.23
2022-11-19T03:10:23.015Z,968.23
2022-11-19T03:10:54.484Z,968.34
2022-11-19T03:11:26.665Z,968.34
2022-11-19T03:11:58.900Z,968.13
2022-11-19T03:12:30.639Z,968.13
2022-11-19T03:13:02.848Z,968.34
2022-11-19T03:13:34.600Z,968.44
2022-11-19T03:14:06.500Z,968.44
2022-11-19T03:14:38.742Z,968.23
2022-11-19T03:15:11.643Z,968.23
2022-11-19T03:15:42.441Z,968.34
2022-11-19T03:16:14.348Z,968.34
2022-11-19T03:16:46.523Z,968.44
2022-11-19T03:17:18.391Z,968.44
2022-11-19T03:17:50.399Z,968.34
2022-11-19T03:18:22.412Z,968.34
2022-11-19T03:18:54.324Z,968.13
2022-11-19T03:19:26.280Z,968.13
2022-11-19T03:19:58.221Z,968.34
2022-11-19T03:20:30.532Z,968.34
2022-11-19T03:21:02.709Z,968.34
2022-11-19T03:21:34.115Z,968.13
2022-11-19T03:21:50.316Z,968.13
2022-11-19T03:22:22.290Z,968.13
2022-11-19T03:23:06.204Z,968.13
2022-11-19T03:23:38.273Z,968.23
2022-11-19T03:24:10.357Z,968.23
2022-11-19T03:24:42.017Z,968.34
2022-11-19T03:25:15.578Z,968.34
2022-11-19T03:25:46.108Z,968.23
2022-11-19T03:26:18.000Z,968.23
2022-11-19T03:26:34.110Z,968.23
2022-11-19T03:27:17.914Z,968.23
2022-11-19T03:27:49.977Z,968.23
2022-11-19T03:28:22.001Z,968.23
2022-11-19T03:28:53.865Z,968.54
2022-11-19T03:29:26.072Z,968.54
2022-11-19T03:29:57.727Z,968.34
2022-11-19T03:30:30.487Z,968.34
2022-11-19T03:31:02.198Z,968.23
2022-11-19T03:31:17.774Z,968.23
2022-11-19T03:31:50.137Z,968.23
2022-11-19T03:32:33.776Z,968.34
2022-11-19T03:33:05.884Z,968.34
2022-11-19T03:33:38.426Z,968.54
2022-11-19T03:34:09.751Z,968.54
2022-11-19T03:34:41.752Z,968.44
2022-11-19T03:35:13.997Z,968.44
2022-11-19T03:35:45.821Z,968.54
2022-11-19T03:36:02.500Z,968.54
2022-11-19T03:36:45.453Z,968.71
2022-11-19T03:37:17.549Z,968.71
2022-11-19T03:37:49.922Z,968.54
2022-11-19T03:38:21.432Z,968.54
2022-11-19T03:38:53.398Z,968.34
2022-11-19T03:39:25.480Z,968.34
2022-11-19T03:39:57.437Z,968.34
2022-11-19T03:40:29.782Z,968.34
2022-11-19T03:41:01.816Z,968.44
2022-11-19T03:41:33.356Z,968.54
2022-11-19T03:42:05.440Z,968.54
2022-11-19T03:42:37.337Z,968.54
2022-11-19T03:43:09.384Z,968.54
2022-11-19T03:43:41.371Z,968.34
2022-11-19T03:44:13.227Z,968.34
2022-11-19T03:44:45.104Z,968.54
2022-11-19T03:45:03.488Z,968.54
2022-11-19T03:45:33.186Z,968.34
2022-11-19T03:45:49.579Z,968.34
2022-11-19T03:46:21.206Z,968.34
2022-11-19T03:46:53.066Z,968.71
2022-11-19T03:47:25.009Z,968.71
2022-11-19T03:47:57.089Z,968.54
2022-11-19T03:48:29.228Z,968.54
2022-11-19T03:49:01.108Z,968.61
2022-11-19T03:49:17.419Z,968.61
2022-11-19T03:49:49.120Z,968.54
2022-11-19T03:50:33.301Z,968.54
2022-11-19T03:51:05.058Z,968.54
2022-11-19T03:51:36.810Z,968.34
2022-11-19T03:52:09.228Z,968.34
2022-11-19T03:52:41.038Z,968.54
2022-11-19T03:53:12.898Z,968.54
2022-11-19T03:53:44.783Z,968.54
2022-11-19T03:54:16.839Z,968.54
2022-11-19T03:54:48.816Z,968.44
2022-11-19T03:55:21.273Z,968.44
2022-11-19T03:55:52.729Z,968.61
2022-11-19T03:56:24.749Z,968.61
2022-11-19T03:56:56.788Z,968.54
2022-11-19T03:57:28.778Z,968.54
2022-11-19T03:58:00.582Z,968.44
2022-11-19T03:58:16.773Z,968.44
2022-11-19T03:59:00.770Z,968.54
2022-11-19T03:59:32.698Z,968.54
2022-11-19T04:00:07.329Z,968.54
2022-11-19T04:00:36.512Z,968.54
2022-11-19T04:01:08.706Z,968.54
2022-11-19T04:01:40.857Z,968.44
2022-11-19T04:02:12.576Z,968.44
2022-11-19T04:02:44.456Z,968.61
2022-11-19T04:03:00.707Z,968.61
2022-11-19T04:03:32.330Z,968.61
2022-11-19T04:03:48.453Z,968.54
2022-11-19T04:04:20.720Z,968.54
2022-11-19T04:04:52.368Z,968.61
2022-11-19T04:05:24.610Z,968.61
2022-11-19T04:05:56.476Z,968.61
2022-11-19T04:06:28.511Z,968.61
2022-11-19T04:07:00.437Z,968.44
2022-11-19T04:07:16.310Z,968.44
2022-11-19T04:07:48.400Z,968.34
2022-11-19T04:08:32.293Z,968.34
2022-11-19T04:09:04.365Z,968.61
2022-11-19T04:09:36.057Z,968.61
2022-11-19T04:10:08.585Z,968.61
2022-11-19T04:10:40.321Z,968.61
2022-11-19T04:11:15.201Z,968.61
2022-11-19T04:11:44.063Z,968.71
2022-11-19T04:12:15.978Z,968.71
2022-11-19T04:12:48.043Z,968.61
2022-11-19T04:13:20.139Z,968.61
2022-11-19T04:13:51.919Z,968.61
2022-11-19T04:14:24.013Z,968.61
2022-11-19T04:14:56.065Z,968.71
2022-11-19T04:15:28.207Z,968.71
2022-11-19T04:16:00.129Z,968.44
2022-11-19T04:16:15.911Z,968.44
2022-11-19T04:17:00.205Z,968.44
2022-11-19T04:17:32.025Z,968.44
2022-11-19T04:18:04.031Z,968.54
2022-11-19T04:18:35.837Z,968.44
2022-11-19T04:19:08.170Z,968.44
2022-11-19T04:19:40.099Z,968.61
2022-11-19T04:20:11.923Z,968.61
2022-11-19T04:20:43.678Z,968.61
2022-11-19T04:21:15.718Z,968.61
2022-11-19T04:21:47.959Z,968.61
2022-11-19T04:22:19.895Z,968.61
2022-11-19T04:22:51.704Z,968.61
2022-11-19T04:23:23.735Z,968.61
2022-11-19T04:23:55.657Z,968.54
2022-11-19T04:24:27.570Z,968.54
2022-11-19T04:24:59.822Z,968.54
2022-11-19T04:25:15.950Z,968.54
2022-11-19T04:25:47.610Z,968.71
2022-11-19T04:26:31.565Z,968.71
2022-11-19T04:27:03.746Z,968.54
2022-11-19T04:27:35.366Z,968.71
2022-11-19T04:28:07.472Z,968.71
2022-11-19T04:28:39.828Z,968.71
2022-11-19T04:29:11.408Z,968.71
2022-11-19T04:29:43.226Z,968.61
2022-11-19T04:29:59.644Z,968.61
2022-11-19T04:30:43.750Z,968.71
2022-11-19T04:31:18.010Z,968.71
2022-11-19T04:31:47.318Z,968.54
2022-11-19T04:32:19.374Z,968.54
2022-11-19T04:32:51.619Z,968.71
2022-11-19T04:33:23.327Z,968.71
2022-11-19T04:33:55.106Z,968.61
2022-11-19T04:34:27.172Z,968.61
2022-11-19T04:34:59.455Z,968.61
2022-11-19T04:35:31.942Z,968.61
2022-11-19T04:36:03.953Z,968.71
2022-11-19T04:36:35.023Z,968.54
2022-11-19T04:37:07.014Z,968.54
2022-11-19T04:37:39.489Z,968.61
2022-11-19T04:38:11.149Z,968.61
2022-11-19T04:38:42.924Z,968.61
2022-11-19T04:38:59.401Z,968.61
2022-11-19T04:39:31.148Z,968.61
2022-11-19T04:39:47.039Z,968.71
2022-11-19T04:40:20.080Z,968.71
2022-11-19T04:40:50.997Z,968.81
2022-11-19T04:41:23.001Z,968.81
2022-11-19T04:41:55.027Z,968.44
2022-11-19T04:42:26.832Z,968.44
2022-11-19T04:42:58.931Z,968.54
2022-11-19T04:43:31.096Z,968.54
2022-11-19T04:44:03.692Z,968.54
2022-11-19T04:44:34.710Z,968.61
2022-11-19T04:45:08.230Z,968.61
2022-11-19T04:45:39.024Z,968.61
2022-11-19T04:46:10.969Z,968.61
2022-11-19T04:46:42.906Z,968.61
2022-11-19T04:47:14.668Z,968.61
2022-11-19T04:47:30.879Z,968.61
2022-11-19T04:48:03.520Z,968.61
2022-11-19T04:48:46.538Z,968.71
2022-11-19T04:49:18.751Z,968.71
2022-11-19T04:49:50.660Z,968.61
2022-11-19T04:50:22.802Z,968.61
2022-11-19T04:50:54.633Z,968.61
2022-11-19T04:51:26.729Z,968.61
2022-11-19T04:51:58.357Z,968.54
2022-11-19T04:52:14.642Z,968.54
2022-11-19T04:52:58.528Z,968.71
2022-11-19T04:53:30.728Z,968.71
2022-11-19T04:54:02.951Z,968.61
2022-11-19T04:54:34.248Z,968.61
2022-11-19T04:55:06.489Z,968.61
2022-11-19T04:55:38.773Z,968.34
2022-11-19T04:56:10.592Z,968.34
2022-11-19T04:56:42.156Z,968.54
2022-11-19T04:57:14.307Z,968.54
2022-11-19T04:57:46.165Z,968.71
2022-11-19T04:58:18.162Z,968.71
2022-11-19T04:58:50.252Z,968.34
2022-11-19T04:59:22.453Z,968.34
2022-11-19T04:59:54.263Z,968.61
2022-11-19T05:00:26.577Z,968.61
2022-11-19T05:00:58.158Z,968.61
2022-11-19T05:01:14.199Z,968.61
2022-11-19T05:01:45.891Z,968.61
2022-11-19T05:02:30.200Z,968.61
2022-11-19T05:03:02.638Z,968.71
2022-11-19T05:03:33.932Z,968.91
2022-11-19T05:04:05.947Z,968.91
2022-11-19T05:04:38.112Z,968.61
2022-11-19T05:05:10.358Z,968.61
2022-11-19T05:05:41.969Z,968.71
2022-11-19T05:05:58.377Z,968.71
2022-11-19T05:06:41.823Z,968.81
2022-11-19T05:07:13.795Z,968.81
2022-11-19T05:07:45.911Z,968.61
2022-11-19T05:08:17.784Z,968.61
2022-11-19T05:08:49.960Z,968.61
2022-11-19T05:09:22.164Z,968.61
2022-11-19T05:09:53.610Z,968.61
2022-11-19T05:10:25.941Z,968.61
2022-11-19T05:10:57.752Z,968.91
2022-11-19T05:11:29.915Z,968.91
2022-11-19T05:12:01.861Z,968.61
2022-11-19T05:12:33.570Z,968.71
2022-11-19T05:13:05.641Z,968.71
2022-11-19T05:13:37.787Z,968.71
2022-11-19T05:14:09.652Z,968.71
2022-11-19T05:14:41.526Z,968.61
2022-11-19T05:15:14.304Z,968.61
2022-11-19T05:15:45.491Z,968.81
2022-11-19T05:16:17.242Z,968.81
2022-11-19T05:16:49.365Z,968.71
2022-11-19T05:17:21.356Z,968.71
2022-11-19T05:17:53.405Z,968.54
2022-11-19T05:18:25.197Z,968.54
2022-11-19T05:18:57.293Z,968.71
2022-11-19T05:19:13.321Z,968.71
2022-11-19T05:19:45.168Z,968.61
2022-11-19T05:20:29.771Z,968.61
2022-11-19T05:21:01.398Z,968.61
2022-11-19T05:21:33.059Z,968.54
2022-11-19T05:22:05.193Z,968.54
2022-11-19T05:22:37.294Z,968.81
2022-11-19T05:23:09.335Z,968.81
2022-11-19T05:23:41.184Z,968.61
2022-11-19T05:23:57.322Z,968.61
2022-11-19T05:24:41.255Z,968.61
2022-11-19T05:25:13.314Z,968.61
2022-11-19T05:25:44.874Z,968.54
2022-11-19T05:26:16.877Z,968.54
2022-11-19T05:26:49.058Z,968.81
2022-11-19T05:27:21.029Z,968.81
2022-11-19T05:27:52.940Z,968.61
2022-11-19T05:28:37.610Z,968.61
2022-11-19T05:28:56.867Z,968.71
2022-11-19T05:29:29.044Z,968.71
2022-11-19T05:30:02.636Z,968.44
2022-11-19T05:30:32.840Z,968.61
2022-11-19T05:31:04.769Z,968.61
2022-11-19T05:31:36.779Z,968.61
2022-11-19T05:32:09.187Z,968.61
2022-11-19T05:32:40.827Z,968.61
2022-11-19T05:32:56.846Z,968.61
2022-11-19T05:33:33.705Z,968.61
2022-11-19T05:33:44.742Z,968.61
2022-11-19T05:34:16.670Z,968.61
2022-11-19T05:34:48.634Z,968.81
2022-11-19T05:35:20.908Z,968.81
2022-11-19T05:35:52.595Z,968.71
2022-11-19T05:36:24.855Z,968.71
2022-11-19T05:36:56.591Z,968.44
2022-11-19T05:37:12.582Z,968.44
2022-11-19T05:37:44.323Z,968.71
2022-11-19T05:38:28.696Z,968.71
2022-11-19T05:39:00.861Z,968.61
2022-11-19T05:39:32.405Z,968.61
2022-11-19T05:40:05.189Z,968.71
2022-11-19T05:40:36.580Z,968.61
2022-11-19T05:41:08.749Z,968.61
2022-11-19T05:41:40.763Z,968.61
2022-11-19T05:41:56.538Z,968.61
2022-11-19T05:42:40.396Z,968.54
2022-11-19T05:43:12.364Z,968.54
2022-11-19T05:43:44.114Z,968.81
2022-11-19T05:44:16.278Z,968.81
2022-11-19T05:44:48.306Z,968.61
2022-11-19T05:45:20.744Z,968.61
2022-11-19T05:45:52.235Z,968.61
2022-11-19T05:46:24.261Z,968.61
2022-11-19T05:46:56.207Z,968.44
2022-11-19T05:47:28.283Z,968.44
2022-11-19T05:48:00.057Z,968.54
2022-11-19T05:48:31.959Z,968.54
2022-11-19T05:49:04.504Z,968.54
2022-11-19T05:49:36.144Z,968.71
2022-11-19T05:50:08.134Z,968.71
2022-11-19T05:50:40.147Z,968.61
2022-11-19T05:50:56.328Z,968.61
2022-11-19T05:51:27.899Z,968.61
2022-11-19T05:51:43.917Z,968.54
2022-11-19T05:52:15.883Z,968.54
2022-11-19T05:52:48.017Z,968.61
2022-11-19T05:53:20.017Z,968.61
2022-11-19T05:53:52.038Z,968.61
2022-11-19T05:54:23.817Z,968.61
2022-11-19T05:54:55.728Z,968.54
2022-11-19T05:55:12.122Z,968.54
2022-11-19T05:55:43.608Z,968.71
2022-11-19T05:56:28.060Z,968.71
2022-11-19T05:56:59.918Z,968.71
2022-11-19T05:57:31.680Z,968.71
2022-11-19T05:58:04.373Z,968.61
2022-11-19T05:58:35.945Z,968.81
2022-11-19T05:59:07.619Z,968.81
2022-11-19T05:59:43.795Z,968.81
2022-11-19T05:59:55.799Z,968.81
2022-11-19T06:00:40.282Z,968.61
2022-11-19T06:01:11.630Z,968.61
2022-11-19T06:01:43.359Z,968.61
2022-11-19T06:02:15.456Z,968.61
2022-11-19T06:02:47.593Z,968.71
2022-11-19T06:03:19.792Z,968.71
2022-11-19T06:03:51.354Z,968.71
2022-11-19T06:04:23.361Z,968.71
2022-11-19T06:04:55.610Z,968.91
2022-11-19T06:05:27.715Z,968.91
2022-11-19T06:05:59.340Z,968.71
2022-11-19T06:06:31.272Z,968.71
2022-11-19T06:07:03.917Z,968.81
2022-11-19T06:07:35.242Z,968.71
2022-11-19T06:08:07.189Z,968.71
2022-11-19T06:08:39.403Z,968.71
2022-11-19T06:09:11.145Z,968.71
2022-11-19T06:09:43.147Z,968.71
2022-11-19T06:10:15.265Z,968.71
2022-11-19T06:10:46.994Z,968.91
2022-11-19T06:11:19.380Z,968.91
2022-11-19T06:11:51.241Z,968.91
2022-11-19T06:12:22.915Z,968.91
2022-11-19T06:12:55.330Z,968.91
2022-11-19T06:13:27.070Z,968.91
2022-11-19T06:13:59.200Z,968.54
2022-11-19T06:14:30.993Z,968.54
2022-11-19T06:15:05.593Z,968.71
2022-11-19T06:15:34.956Z,968.61
2022-11-19T06:16:06.999Z,968.61
2022-11-19T06:16:39.268Z,968.71
2022-11-19T06:17:10.918Z,968.71
2022-11-19T06:17:42.943Z,968.81
2022-11-19T06:18:14.895Z,968.81
2022-11-19T06:18:46.780Z,968.81
2022-11-19T06:19:19.344Z,968.81
2022-11-19T06:19:50.885Z,968.71
2022-11-19T06:20:23.099Z,968.71
2022-11-19T06:20:54.925Z,968.81
2022-11-19T06:21:26.581Z,968.81
2022-11-19T06:21:42.763Z,968.71
2022-11-19T06:22:14.493Z,968.71
2022-11-19T06:22:58.939Z,968.91
2022-11-19T06:23:30.711Z,968.91
2022-11-19T06:24:02.952Z,968.81
2022-11-19T06:24:34.548Z,968.71
2022-11-19T06:25:06.865Z,968.71
2022-11-19T06:25:38.425Z,968.71
2022-11-19T06:26:10.666Z,968.71
2022-11-19T06:26:26.523Z,968.71
2022-11-19T06:27:10.796Z,968.71
2022-11-19T06:27:42.542Z,968.81
2022-11-19T06:28:14.288Z,968.81
2022-11-19T06:28:46.464Z,968.81
2022-11-19T06:29:19.041Z,968.81
2022-11-19T06:29:55.988Z,968.71
2022-11-19T06:30:22.685Z,968.71
2022-11-19T06:30:54.309Z,968.91
2022-11-19T06:31:10.784Z,968.91
2022-11-19T06:31:42.220Z,968.81